首页
METAR-TAF:

METAR-TAF

机场 :

San Andrés, 哥伦比亚

纬度: 12-35N, 经度: 081-43W, 海拔: 1米

当前天气观测

该预报发布于1小时和10分钟前的23:00 UTC
风速15节,风向东转东北,有时为26节阵风,在东北东转东南之间变化
温度 26°C
湿度 89%
气压 1012 hPa
能見度: 6000
多云层高于1200英尺
小毛毛雨,

METAR: SKSP 282300Z 07015G26KT 050V110 6000 -DZ BKN012 26/24 Q1012

时间: 19:10 (00:10 UTC)

预报

该预报发布于1小时和40分钟前的22:30 UTC
预报有效从29日的 00点(UTC)到 29日的 24点(UTC)
风速15节,风向
能見度: 5000
多云层高于1000英尺, 塔状积云.
成为
从 29日的 04点(UTC)到 29日的 06点(UTC)
能見度: 3000
多云层高于1000英尺
雨,

TAF: SKSP 282230Z 2900/2924 08015KT 5000 RA BKN010TCU BECMG 2904/2906 3000 RA BKN010 TX27/2918Z TN24/2910Z

超过4000个机场的气象观测和天气预报(METAR&TAF报告)。

可查询的气象台以黄色和红色小点在地图上表示。

将鼠标移到小点上方,可查看气象台名称。

然后点击查看天气观测和预报。

如需切换地图:点击带黑十字的绿色按钮放大地图;点击带横线的绿色按钮缩小地图;或者点击绿色箭头查看邻近地区的地图。


METAR-TAF: